Time;durP1;ratioP1;P1;durP2;ratioP2;P2;SDS_P1;SDS_P2;PMS_P1;PMS_P2;Temp;Humidity;BMP_temperature;BMP_pressure;BME280_temperature;BME280_humidity;BME280_pressure;Samples;Min_cycle;Max_cycle;Signal;HPM_P1;HPM_P2
2021/10/01 00:02:00;;;;;;;0.82;0.80;;;;;;;;;;5095079;28;20208;-86
2021/10/01 00:04:27;;;;;;;0.80;0.77;;;;;;;;;;5095561;28;20207;-85
2021/10/01 00:06:55;;;;;;;2.13;1.42;;;;;;;;;;5095627;28;20188;-86
2021/10/01 00:09:34;;;;;;;1.25;0.88;;;;;;;;;;5095135;28;20220;-86
2021/10/01 00:12:18;;;;;;;1.48;1.35;;;;;;;;;;5094569;28;20203;-85
2021/10/01 00:14:48;;;;;;;1.50;1.40;;;;;;;;;;5094125;28;20806;-86
2021/10/01 00:17:34;;;;;;;1.70;1.60;;;;;;;;;;5094233;28;20199;-86
2021/10/01 00:20:13;;;;;;;1.80;1.70;;;;;;;;;;5093989;28;20216;-86
2021/10/01 00:22:49;;;;;;;1.23;1.13;;;;;;;;;;5093468;28;20708;-86
2021/10/01 00:25:22;;;;;;;2.33;1.27;;;;;;;;;;5093540;28;20691;-86
2021/10/01 00:27:52;;;;;;;1.10;1.00;;;;;;;;;;5093550;28;20220;-86
2021/10/01 00:30:23;;;;;;;1.13;0.90;;;;;;;;;;5093424;28;20964;-86
2021/10/01 00:33:04;;;;;;;1.20;1.10;;;;;;;;;;5093718;28;20609;-86
2021/10/01 00:35:49;;;;;;;0.82;0.82;;;;;;;;;;5093423;28;20191;-86
2021/10/01 00:38:19;;;;;;;1.50;1.40;;;;;;;;;;5093720;28;20243;-86
2021/10/01 00:41:09;;;;;;;1.05;0.90;;;;;;;;;;5093328;28;20189;-86
2021/10/01 00:44:18;;;;;;;0.85;0.85;;;;;;;;;;5092869;28;20235;-86
2021/10/01 00:46:53;;;;;;;3.05;1.23;;;;;;;;;;5093511;28;20200;-86
2021/10/01 00:49:20;;;;;;;1.08;0.98;;;;;;;;;;5085858;28;20232;-86
2021/10/01 00:52:02;;;;;;;1.55;1.38;;;;;;;;;;5093282;28;20537;-86
2021/10/01 00:55:13;;;;;;;0.80;0.80;;;;;;;;;;5093518;28;20187;-86
2021/10/01 00:57:48;;;;;;;0.75;0.75;;;;;;;;;;5093368;28;20185;-87
2021/10/01 01:00:26;;;;;;;1.13;1.05;;;;;;;;;;5093134;28;20187;-86
2021/10/01 01:03:03;;;;;;;1.00;1.00;;;;;;;;;;5093355;28;20554;-86
2021/10/01 01:05:44;;;;;;;1.05;0.90;;;;;;;;;;5093378;28;20177;-86
2021/10/01 01:08:38;;;;;;;1.27;1.10;;;;;;;;;;5092963;28;20771;-87
2021/10/01 01:11:11;;;;;;;1.45;1.05;;;;;;;;;;5093118;28;20177;-87
2021/10/01 01:14:01;;;;;;;1.23;0.90;;;;;;;;;;5096692;28;20177;-86
2021/10/01 01:16:35;;;;;;;1.00;1.00;;;;;;;;;;5096705;28;20180;-86
2021/10/01 01:19:06;;;;;;;2.88;2.10;;;;;;;;;;5097079;28;20217;-86
2021/10/01 01:21:57;;;;;;;1.05;1.00;;;;;;;;;;5097194;28;20188;-86
2021/10/01 01:24:54;;;;;;;0.75;0.75;;;;;;;;;;5097226;28;20694;-86
2021/10/01 01:27:46;;;;;;;1.20;1.10;;;;;;;;;;5096992;28;20188;-86
2021/10/01 01:30:23;;;;;;;2.20;1.00;;;;;;;;;;5097247;28;20593;-85
2021/10/01 01:33:13;;;;;;;0.77;0.77;;;;;;;;;;5096874;28;20177;-86
2021/10/01 01:35:41;;;;;;;0.85;0.80;;;;;;;;;;5097157;28;20276;-86
2021/10/01 01:38:20;;;;;;;0.63;0.63;;;;;;;;;;5096673;28;20187;-86
2021/10/01 01:41:01;;;;;;;1.13;1.02;;;;;;;;;;5097018;28;20192;-86
2021/10/01 01:43:30;;;;;;;0.75;0.75;;;;;;;;;;5097048;28;20204;-86
2021/10/01 01:46:04;;;;;;;0.95;0.93;;;;;;;;;;5096809;28;20212;-85
2021/10/01 01:48:35;;;;;;;0.80;0.80;;;;;;;;;;5096808;28;20223;-86
2021/10/01 01:51:05;;;;;;;0.70;0.70;;;;;;;;;;5096858;28;20224;-86
2021/10/01 01:53:50;;;;;;;1.27;0.80;;;;;;;;;;5096693;28;20232;-87
2021/10/01 01:56:22;;;;;;;1.00;0.70;;;;;;;;;;5096994;28;20189;-86
2021/10/01 01:58:50;;;;;;;0.80;0.80;;;;;;;;;;5096245;28;20217;-86
2021/10/01 02:01:38;;;;;;;0.80;0.80;;;;;;;;;;5096510;28;20212;-86
2021/10/01 02:04:33;;;;;;;0.50;0.50;;;;;;;;;;5096597;28;20200;-86
2021/10/01 02:07:04;;;;;;;0.82;0.82;;;;;;;;;;5096798;28;20189;-86
2021/10/01 02:09:34;;;;;;;0.82;0.82;;;;;;;;;;5096092;28;20740;-86
2021/10/01 02:12:03;;;;;;;1.63;1.55;;;;;;;;;;5096564;28;20197;-86
2021/10/01 02:14:35;;;;;;;1.45;0.95;;;;;;;;;;5096448;28;20191;-86
2021/10/01 02:17:05;;;;;;;0.82;0.82;;;;;;;;;;5096619;28;20200;-87
2021/10/01 02:19:52;;;;;;;0.77;0.77;;;;;;;;;;5096596;28;20220;-85
2021/10/01 02:22:21;;;;;;;0.80;0.80;;;;;;;;;;5096327;28;20188;-86
2021/10/01 02:24:57;;;;;;;0.90;0.90;;;;;;;;;;5095381;28;20204;-87
2021/10/01 02:27:34;;;;;;;1.15;0.80;;;;;;;;;;5096555;28;20188;-86
2021/10/01 02:30:09;;;;;;;1.17;0.90;;;;;;;;;;5096712;28;20227;-86
2021/10/01 02:32:40;;;;;;;0.98;0.93;;;;;;;;;;5094005;28;20191;-86
2021/10/01 02:35:10;;;;;;;0.85;0.73;;;;;;;;;;5080764;28;20194;-86
2021/10/01 02:37:38;;;;;;;1.30;1.17;;;;;;;;;;5078812;28;20212;-86
2021/10/01 02:40:13;;;;;;;1.35;1.00;;;;;;;;;;5075830;28;20221;-86
2021/10/01 02:43:03;;;;;;;1.05;1.05;;;;;;;;;;5076666;28;20181;-86
2021/10/01 02:45:33;;;;;;;1.20;0.82;;;;;;;;;;5090495;28;20597;-86
2021/10/01 02:48:06;;;;;;;0.68;0.68;;;;;;;;;;5095390;28;20185;-85
2021/10/01 02:50:37;;;;;;;1.15;1.08;;;;;;;;;;5096611;28;20239;-87
2021/10/01 02:53:18;;;;;;;1.63;1.20;;;;;;;;;;5100866;28;20200;-86
2021/10/01 02:55:52;;;;;;;0.60;0.60;;;;;;;;;;5098531;28;20553;-86
2021/10/01 02:58:24;;;;;;;1.30;1.02;;;;;;;;;;5100127;28;20314;-86
2021/10/01 03:00:53;;;;;;;0.77;0.75;;;;;;;;;;5098140;28;20173;-86
2021/10/01 03:03:23;;;;;;;1.00;1.00;;;;;;;;;;5094835;28;20183;-86
2021/10/01 03:06:01;;;;;;;0.70;0.70;;;;;;;;;;5094725;28;20227;-86
2021/10/01 03:08:33;;;;;;;1.15;1.00;;;;;;;;;;5094711;28;20235;-87
2021/10/01 03:11:03;;;;;;;1.10;0.80;;;;;;;;;;5094763;28;20181;-86
2021/10/01 03:13:34;;;;;;;2.47;0.90;;;;;;;;;;5095069;28;20204;-86
2021/10/01 03:16:03;;;;;;;0.68;0.68;;;;;;;;;;5094794;28;20192;-86
2021/10/01 03:18:33;;;;;;;0.98;0.98;;;;;;;;;;5094404;28;20250;-86
2021/10/01 03:21:02;;;;;;;0.80;0.80;;;;;;;;;;5094213;28;20188;-86
2021/10/01 03:23:31;;;;;;;1.27;1.20;;;;;;;;;;5094505;28;20180;-86
2021/10/01 03:26:01;;;;;;;0.80;0.80;;;;;;;;;;5094120;28;20223;-86
2021/10/01 03:28:32;;;;;;;0.73;0.73;;;;;;;;;;5094271;28;20224;-85
2021/10/01 03:31:00;;;;;;;0.80;0.80;;;;;;;;;;5094187;28;20183;-86
2021/10/01 03:33:28;;;;;;;0.90;0.90;;;;;;;;;;5094392;28;20180;-86
2021/10/01 03:36:00;;;;;;;0.80;0.80;;;;;;;;;;5094011;28;20591;-86
2021/10/01 03:38:41;;;;;;;1.05;0.82;;;;;;;;;;5094033;28;20217;-86
2021/10/01 03:41:09;;;;;;;0.75;0.75;;;;;;;;;;5094280;28;20191;-86
2021/10/01 03:43:36;;;;;;;0.85;0.85;;;;;;;;;;5093923;28;20211;-86
2021/10/01 03:46:05;;;;;;;0.70;0.70;;;;;;;;;;5093965;28;20220;-86
2021/10/01 03:48:32;;;;;;;0.70;0.70;;;;;;;;;;5093967;28;20232;-86
2021/10/01 03:51:01;;;;;;;3.17;1.38;;;;;;;;;;5093825;28;20228;-86
2021/10/01 03:53:30;;;;;;;0.85;0.85;;;;;;;;;;5093933;28;20263;-87
2021/10/01 03:55:57;;;;;;;1.00;1.00;;;;;;;;;;5094111;28;20184;-86
2021/10/01 03:58:24;;;;;;;1.08;0.98;;;;;;;;;;5094017;28;20227;-86
2021/10/01 04:00:52;;;;;;;1.10;1.00;;;;;;;;;;5093498;28;20205;-86
2021/10/01 04:03:20;;;;;;;1.17;1.00;;;;;;;;;;5093507;28;20188;-86
2021/10/01 04:05:48;;;;;;;0.77;0.70;;;;;;;;;;5093880;28;20204;-86
2021/10/01 04:08:17;;;;;;;1.00;0.90;;;;;;;;;;5094225;28;20220;-86
2021/10/01 04:10:44;;;;;;;0.93;0.93;;;;;;;;;;5093483;28;20181;-86
2021/10/01 04:13:13;;;;;;;0.65;0.65;;;;;;;;;;5094337;28;20200;-86
2021/10/01 04:15:41;;;;;;;1.23;0.80;;;;;;;;;;5094136;28;20206;-86
2021/10/01 04:18:08;;;;;;;0.80;0.80;;;;;;;;;;5094034;28;20565;-86
2021/10/01 04:20:39;;;;;;;0.73;0.73;;;;;;;;;;5094535;28;20200;-86
2021/10/01 04:23:10;;;;;;;0.75;0.75;;;;;;;;;;5094478;28;20238;-86
2021/10/01 04:25:40;;;;;;;1.63;1.50;;;;;;;;;;5094572;28;20213;-86
2021/10/01 04:28:08;;;;;;;1.00;1.00;;;;;;;;;;5094598;28;20188;-86
2021/10/01 04:30:42;;;;;;;0.90;0.90;;;;;;;;;;5094811;28;20195;-86
2021/10/01 04:33:18;;;;;;;1.10;0.98;;;;;;;;;;5095352;28;20188;-86
2021/10/01 04:35:45;;;;;;;1.02;0.95;;;;;;;;;;5094556;28;20200;-87
2021/10/01 04:38:13;;;;;;;1.00;0.88;;;;;;;;;;5094562;28;20220;-86
2021/10/01 04:40:42;;;;;;;1.33;1.23;;;;;;;;;;5094303;28;20180;-86
2021/10/01 04:43:17;;;;;;;1.15;1.10;;;;;;;;;;5093242;28;20188;-86
2021/10/01 04:45:46;;;;;;;1.15;0.90;;;;;;;;;;5094330;28;20211;-86
2021/10/01 04:48:14;;;;;;;1.00;0.90;;;;;;;;;;5098101;28;20302;-86
2021/10/01 04:50:47;;;;;;;1.40;1.20;;;;;;;;;;5097988;28;20566;-86
2021/10/01 04:53:15;;;;;;;1.38;1.25;;;;;;;;;;5097793;28;20184;-85
2021/10/01 04:55:46;;;;;;;2.67;1.80;;;;;;;;;;5098294;28;20215;-86
2021/10/01 04:58:14;;;;;;;1.60;1.50;;;;;;;;;;5098119;28;20234;-86
2021/10/01 05:00:43;;;;;;;2.22;1.10;;;;;;;;;;5098166;28;20188;-86
2021/10/01 05:03:11;;;;;;;1.95;1.48;;;;;;;;;;5098822;28;20179;-85
2021/10/01 05:05:39;;;;;;;2.22;1.23;;;;;;;;;;5098180;28;20219;-85
2021/10/01 05:08:06;;;;;;;1.50;1.40;;;;;;;;;;5098738;28;20192;-86
2021/10/01 05:10:35;;;;;;;1.67;1.10;;;;;;;;;;5098370;28;20180;-86
2021/10/01 05:13:04;;;;;;;1.20;1.10;;;;;;;;;;5098355;28;20195;-85
2021/10/01 05:15:31;;;;;;;1.58;1.10;;;;;;;;;;5099480;28;20200;-86
2021/10/01 05:17:59;;;;;;;1.30;1.20;;;;;;;;;;5098574;28;20207;-86
2021/10/01 05:20:27;;;;;;;1.13;1.00;;;;;;;;;;5098449;28;20193;-85
2021/10/01 05:22:54;;;;;;;0.98;0.77;;;;;;;;;;5095433;28;20581;-85
2021/10/01 05:25:22;;;;;;;0.90;0.90;;;;;;;;;;5097835;28;20197;-86
2021/10/01 05:27:50;;;;;;;1.10;1.00;;;;;;;;;;5098739;28;20187;-85
2021/10/01 05:30:19;;;;;;;1.20;0.80;;;;;;;;;;5078469;28;20207;-86
2021/10/01 05:32:47;;;;;;;1.65;1.02;;;;;;;;;;5077226;28;20192;-86
2021/10/01 05:35:14;;;;;;;1.95;1.00;;;;;;;;;;5076192;28;20185;-86
2021/10/01 05:37:42;;;;;;;0.90;0.90;;;;;;;;;;5076652;28;20562;-85
2021/10/01 05:40:11;;;;;;;1.00;1.00;;;;;;;;;;5076068;28;20225;-87
2021/10/01 05:42:40;;;;;;;1.23;1.13;;;;;;;;;;5076317;28;20185;-86
2021/10/01 05:45:10;;;;;;;1.15;1.15;;;;;;;;;;5088718;28;20197;-86
2021/10/01 05:47:39;;;;;;;1.00;0.80;;;;;;;;;;5095972;28;20257;-86
2021/10/01 05:50:12;;;;;;;1.60;1.42;;;;;;;;;;5096308;28;20225;-87
2021/10/01 05:52:51;;;;;;;1.30;1.17;;;;;;;;;;5096709;28;20203;-85
2021/10/01 05:55:19;;;;;;;1.20;1.20;;;;;;;;;;5098040;28;20225;-85
2021/10/01 05:57:46;;;;;;;0.85;0.82;;;;;;;;;;5086424;28;20203;-86
2021/10/01 06:00:15;;;;;;;1.45;1.17;;;;;;;;;;5094988;28;20228;-86
2021/10/01 06:02:45;;;;;;;1.17;1.10;;;;;;;;;;5097523;28;20200;-87
2021/10/01 06:05:16;;;;;;;0.80;0.80;;;;;;;;;;5096536;28;20300;-87
2021/10/01 06:07:45;;;;;;;1.30;1.10;;;;;;;;;;5076746;28;20252;-86
2021/10/01 06:10:14;;;;;;;1.85;1.40;;;;;;;;;;5076503;28;20283;-86
2021/10/01 06:12:42;;;;;;;1.20;1.10;;;;;;;;;;5077993;28;20182;-85
2021/10/01 06:15:10;;;;;;;0.80;0.80;;;;;;;;;;5077408;28;20204;-86
2021/10/01 06:17:38;;;;;;;1.42;1.00;;;;;;;;;;5077301;28;20198;-86
2021/10/01 06:20:09;;;;;;;1.33;0.93;;;;;;;;;;5077054;28;20217;-86
2021/10/01 06:22:38;;;;;;;0.95;0.90;;;;;;;;;;5077707;28;20616;-86
2021/10/01 06:25:07;;;;;;;1.75;1.08;;;;;;;;;;5077876;28;20189;-85
2021/10/01 06:27:35;;;;;;;1.10;1.00;;;;;;;;;;5077301;28;20217;-86
2021/10/01 06:30:06;;;;;;;1.08;0.90;;;;;;;;;;5078281;28;20225;-86
2021/10/01 06:32:35;;;;;;;2.47;1.40;;;;;;;;;;5078639;28;20201;-85
2021/10/01 06:35:03;;;;;;;2.55;1.75;;;;;;;;;;5077617;28;20249;-85
2021/10/01 06:37:33;;;;;;;1.65;1.30;;;;;;;;;;5076763;28;20197;-86
2021/10/01 06:40:00;;;;;;;1.63;1.20;;;;;;;;;;5077629;28;20244;-85
2021/10/01 06:42:28;;;;;;;1.20;1.10;;;;;;;;;;5078167;28;20189;-84
2021/10/01 06:44:56;;;;;;;1.10;1.10;;;;;;;;;;5078096;28;20193;-84
2021/10/01 06:47:30;;;;;;;1.80;1.30;;;;;;;;;;5078142;28;20217;-85
2021/10/01 06:50:09;;;;;;;1.77;1.40;;;;;;;;;;5077189;28;20609;-85
2021/10/01 06:53:09;;;;;;;2.15;1.17;;;;;;;;;;5077751;28;20189;-85
2021/10/01 08:21:33;;;;;;;1.90;1.40;;;;;;;;;;5072323;28;20650;-86
2021/10/01 08:24:01;;;;;;;1.50;1.40;;;;;;;;;;5072672;28;20640;-86
2021/10/01 08:26:30;;;;;;;1.40;1.15;;;;;;;;;;5072894;28;20232;-86
2021/10/01 08:28:58;;;;;;;1.90;1.08;;;;;;;;;;5073135;28;20235;-86
2021/10/01 08:31:29;;;;;;;1.58;1.30;;;;;;;;;;5072805;28;20204;-87
2021/10/01 08:33:57;;;;;;;2.40;1.83;;;;;;;;;;5084937;28;20207;-85
2021/10/01 08:36:25;;;;;;;1.25;1.15;;;;;;;;;;5085868;28;20204;-86
2021/10/01 08:38:53;;;;;;;1.50;1.40;;;;;;;;;;5081864;28;20300;-86
2021/10/01 08:41:21;;;;;;;1.15;1.00;;;;;;;;;;5073578;28;20212;-86
2021/10/01 08:43:50;;;;;;;1.25;0.98;;;;;;;;;;5073770;28;20714;-86
2021/10/01 08:46:19;;;;;;;2.85;1.13;;;;;;;;;;5073842;28;20189;-87
2021/10/01 08:48:48;;;;;;;1.65;1.10;;;;;;;;;;5074290;28;20232;-86
2021/10/01 08:51:16;;;;;;;8.38;1.55;;;;;;;;;;5074077;28;20244;-86
2021/10/01 08:53:45;;;;;;;4.13;1.30;;;;;;;;;;5090218;28;20203;-85
2021/10/01 08:56:13;;;;;;;1.15;1.02;;;;;;;;;;5091401;28;20219;-84
2021/10/01 08:58:40;;;;;;;1.70;1.00;;;;;;;;;;5081768;28;20221;-86
2021/10/01 09:01:08;;;;;;;1.20;1.10;;;;;;;;;;5079725;28;20216;-86
2021/10/01 09:03:35;;;;;;;1.27;1.10;;;;;;;;;;5077038;28;20182;-87
2021/10/01 09:06:04;;;;;;;0.85;0.80;;;;;;;;;;5073049;28;20209;-88
2021/10/01 09:08:33;;;;;;;2.45;1.15;;;;;;;;;;5072042;28;20605;-88
2021/10/01 09:11:03;;;;;;;1.02;0.98;;;;;;;;;;5072207;28;20291;-87
2021/10/01 09:13:34;;;;;;;1.13;0.80;;;;;;;;;;5070678;28;20201;-88
2021/10/01 09:16:06;;;;;;;1.00;1.00;;;;;;;;;;5071993;28;20558;-87
2021/10/01 09:18:37;;;;;;;1.00;0.88;;;;;;;;;;5071402;28;20224;-85
2021/10/01 09:21:08;;;;;;;0.82;0.82;;;;;;;;;;5071764;28;20185;-87
2021/10/01 09:23:42;;;;;;;1.90;1.08;;;;;;;;;;5072096;28;20185;-86
2021/10/01 09:26:12;;;;;;;2.35;1.05;;;;;;;;;;5071845;28;20790;-88
2021/10/01 09:28:53;;;;;;;1.33;0.82;;;;;;;;;;5071881;28;20236;-88
2021/10/01 09:31:42;;;;;;;2.58;1.73;;;;;;;;;;5072051;28;20196;-89
2021/10/01 09:34:12;;;;;;;1.25;1.02;;;;;;;;;;5075488;28;20237;-88
2021/10/01 09:36:42;;;;;;;0.90;0.90;;;;;;;;;;5075725;28;20184;-87
2021/10/01 09:39:27;;;;;;;1.58;1.00;;;;;;;;;;5075474;28;20224;-88
2021/10/01 09:41:54;;;;;;;1.08;0.93;;;;;;;;;;5075377;28;20178;-87
2021/10/01 09:44:22;;;;;;;0.90;0.90;;;;;;;;;;5075271;28;20181;-88
2021/10/01 09:46:52;;;;;;;0.85;0.85;;;;;;;;;;5075515;28;20185;-88
2021/10/01 09:49:30;;;;;;;1.33;1.05;;;;;;;;;;5074972;28;20719;-88
2021/10/01 09:51:59;;;;;;;3.80;1.20;;;;;;;;;;5075107;28;20189;-87
2021/10/01 09:54:30;;;;;;;1.13;0.90;;;;;;;;;;5075188;28;20219;-89
2021/10/01 09:57:02;;;;;;;1.13;1.00;;;;;;;;;;5075495;28;20177;-88
2021/10/01 09:59:30;;;;;;;1.40;0.80;;;;;;;;;;5075304;28;20706;-88
2021/10/01 10:02:12;;;;;;;1.05;1.00;;;;;;;;;;5075336;28;20185;-87
2021/10/01 10:04:45;;;;;;;1.05;0.95;;;;;;;;;;5075187;28;20205;-87
2021/10/01 10:07:18;;;;;;;0.55;0.55;;;;;;;;;;5075242;28;20200;-87
2021/10/01 10:09:49;;;;;;;0.50;0.50;;;;;;;;;;5074965;28;20688;-88
2021/10/01 10:12:22;;;;;;;0.75;0.75;;;;;;;;;;5074845;28;20178;-88
2021/10/01 10:14:55;;;;;;;1.95;1.20;;;;;;;;;;5076057;28;20185;-88
2021/10/01 10:17:25;;;;;;;0.80;0.80;;;;;;;;;;5075164;28;20182;-86
2021/10/01 10:19:56;;;;;;;0.73;0.60;;;;;;;;;;5074788;28;20616;-88
2021/10/01 10:22:27;;;;;;;0.73;0.70;;;;;;;;;;5074675;28;20185;-88
2021/10/01 10:24:56;;;;;;;1.92;1.00;;;;;;;;;;5074617;28;20197;-88
2021/10/01 10:27:25;;;;;;;0.98;0.90;;;;;;;;;;5074787;28;20192;-88
2021/10/01 10:29:54;;;;;;;1.13;1.00;;;;;;;;;;5074220;28;20706;-89
2021/10/01 10:32:28;;;;;;;1.00;0.60;;;;;;;;;;5074531;28;20666;-89
2021/10/01 10:34:58;;;;;;;1.75;0.80;;;;;;;;;;5074395;28;20659;-89
2021/10/01 10:37:40;;;;;;;0.70;0.70;;;;;;;;;;5075046;28;20187;-89
2021/10/01 10:40:11;;;;;;;1.08;0.98;;;;;;;;;;5074930;28;20688;-88
2021/10/01 10:42:41;;;;;;;2.45;0.90;;;;;;;;;;5074590;28;20200;-89
2021/10/01 10:45:19;;;;;;;2.00;0.95;;;;;;;;;;5073901;28;20652;-89
2021/10/01 10:48:00;;;;;;;0.80;0.80;;;;;;;;;;5075129;28;20191;-89
2021/10/01 10:50:50;;;;;;;0.90;0.90;;;;;;;;;;5073962;28;20311;-88
2021/10/01 10:53:24;;;;;;;0.88;0.75;;;;;;;;;;5075206;28;20726;-89
2021/10/01 10:56:09;;;;;;;1.02;0.88;;;;;;;;;;5074872;28;20189;-90
2021/10/01 10:58:45;;;;;;;1.20;0.77;;;;;;;;;;5074161;28;20243;-88
2021/10/01 11:01:39;;;;;;;0.68;0.68;;;;;;;;;;5075214;28;20250;-89
2021/10/01 11:04:35;;;;;;;1.13;1.08;;;;;;;;;;5074998;28;20258;-88
2021/10/01 11:07:07;;;;;;;0.70;0.70;;;;;;;;;;5075003;28;20652;-90
2021/10/01 11:09:45;;;;;;;2.13;1.05;;;;;;;;;;5073660;28;20270;-88
2021/10/01 11:12:29;;;;;;;0.60;0.60;;;;;;;;;;5074378;28;20235;-88
2021/10/01 11:15:19;;;;;;;0.75;0.52;;;;;;;;;;5075369;28;20228;-89
2021/10/01 11:18:18;;;;;;;0.63;0.63;;;;;;;;;;5082003;28;20192;-89
2021/10/01 11:20:46;;;;;;;2.50;1.05;;;;;;;;;;5091613;28;20695;-90
2021/10/01 11:23:19;;;;;;;0.80;0.80;;;;;;;;;;5093817;28;20208;-86
2021/10/01 11:25:49;;;;;;;1.20;1.10;;;;;;;;;;5093587;28;20280;-86
2021/10/01 11:28:17;;;;;;;0.90;0.90;;;;;;;;;;5093572;28;20721;-85
2021/10/01 11:30:53;;;;;;;1.02;0.88;;;;;;;;;;5093374;28;20212;-87
2021/10/01 11:33:21;;;;;;;2.03;0.80;;;;;;;;;;5093742;28;20172;-88
2021/10/01 11:35:50;;;;;;;1.70;1.40;;;;;;;;;;5093781;28;20556;-86
2021/10/01 11:38:28;;;;;;;0.68;0.50;;;;;;;;;;5093962;28;20299;-87
2021/10/01 11:41:16;;;;;;;0.60;0.60;;;;;;;;;;5093786;28;20187;-86
2021/10/01 11:43:55;;;;;;;0.70;0.63;;;;;;;;;;5093605;28;20670;-86
2021/10/01 11:46:31;;;;;;;0.50;0.50;;;;;;;;;;5094208;28;20184;-88
2021/10/01 11:49:02;;;;;;;1.00;0.70;;;;;;;;;;5093573;28;20236;-87
2021/10/01 11:51:31;;;;;;;0.80;0.80;;;;;;;;;;5054940;28;20193;-85
2021/10/01 11:54:12;;;;;;;0.55;0.55;;;;;;;;;;5055881;28;20178;-86
2021/10/01 11:56:54;;;;;;;0.60;0.60;;;;;;;;;;5056559;28;20280;-87
2021/10/01 11:59:25;;;;;;;0.57;0.57;;;;;;;;;;5035114;28;20218;-86
2021/10/01 12:01:58;;;;;;;0.65;0.65;;;;;;;;;;5034942;28;20549;-88
2021/10/01 12:04:34;;;;;;;0.65;0.65;;;;;;;;;;5034164;28;20248;-87
2021/10/01 12:07:05;;;;;;;0.50;0.50;;;;;;;;;;5035135;28;20183;-85
2021/10/01 12:09:32;;;;;;;0.55;0.55;;;;;;;;;;5055343;28;20222;-85
2021/10/01 12:12:08;;;;;;;1.25;0.90;;;;;;;;;;5055583;28;20216;-85
2021/10/01 12:14:36;;;;;;;0.47;0.47;;;;;;;;;;5055943;28;20288;-84
2021/10/01 12:17:09;;;;;;;0.90;0.60;;;;;;;;;;5056516;28;20208;-83
2021/10/01 12:19:37;;;;;;;0.70;0.70;;;;;;;;;;5056437;28;20225;-86
2021/10/01 12:22:07;;;;;;;0.60;0.60;;;;;;;;;;5054600;28;20208;-84
2021/10/01 12:24:47;;;;;;;0.60;0.60;;;;;;;;;;5055079;28;20575;-85
2021/10/01 12:27:17;;;;;;;1.08;0.90;;;;;;;;;;5055778;28;20185;-85
2021/10/01 12:29:48;;;;;;;0.70;0.70;;;;;;;;;;5055786;28;20233;-86
2021/10/01 12:32:17;;;;;;;2.42;0.60;;;;;;;;;;5053714;28;20640;-85
2021/10/01 12:34:52;;;;;;;0.70;0.70;;;;;;;;;;5053209;28;20179;-86
2021/10/01 12:37:23;;;;;;;0.77;0.77;;;;;;;;;;5054103;28;20193;-87
2021/10/01 12:39:55;;;;;;;0.70;0.68;;;;;;;;;;5053529;28;20245;-86
2021/10/01 12:42:26;;;;;;;2.25;0.75;;;;;;;;;;5053694;28;20177;-86
2021/10/01 12:45:04;;;;;;;0.70;0.70;;;;;;;;;;5073426;28;20213;-87
2021/10/01 12:47:36;;;;;;;0.80;0.80;;;;;;;;;;5073838;28;20199;-87
2021/10/01 12:50:07;;;;;;;0.50;0.50;;;;;;;;;;5081786;28;20237;-89
2021/10/01 12:52:35;;;;;;;0.95;0.60;;;;;;;;;;5093501;28;20181;-88
2021/10/01 12:55:06;;;;;;;0.88;0.57;;;;;;;;;;5092939;28;20701;-88
2021/10/01 12:57:40;;;;;;;0.50;0.50;;;;;;;;;;5084918;28;20640;-89
2021/10/01 13:00:17;;;;;;;0.77;0.77;;;;;;;;;;5087694;28;20232;-87
2021/10/01 13:02:47;;;;;;;0.60;0.60;;;;;;;;;;5093087;28;20181;-90
2021/10/01 13:05:20;;;;;;;0.65;0.65;;;;;;;;;;5093189;28;20646;-87
2021/10/01 13:07:48;;;;;;;3.10;0.85;;;;;;;;;;5094419;28;20654;-86
2021/10/01 13:10:40;;;;;;;0.43;0.43;;;;;;;;;;5096885;28;20290;-88
2021/10/01 13:13:13;;;;;;;0.77;0.77;;;;;;;;;;5092105;28;20550;-90
2021/10/01 13:15:47;;;;;;;0.70;0.70;;;;;;;;;;5096811;28;20200;-88
2021/10/01 13:18:26;;;;;;;0.93;0.70;;;;;;;;;;5096165;28;20212;-89
2021/10/01 13:21:07;;;;;;;0.50;0.50;;;;;;;;;;5096911;28;20188;-90
2021/10/01 13:23:38;;;;;;;1.23;1.00;;;;;;;;;;5096594;28;20185;-89
2021/10/01 13:26:14;;;;;;;0.40;0.40;;;;;;;;;;5096461;28;20207;-89
2021/10/01 13:28:46;;;;;;;0.40;0.40;;;;;;;;;;5097386;28;20219;-88
2021/10/01 13:31:14;;;;;;;0.70;0.70;;;;;;;;;;5095258;28;20689;-86
2021/10/01 13:33:42;;;;;;;0.85;0.80;;;;;;;;;;5076479;28;20177;-88
2021/10/01 13:36:09;;;;;;;0.68;0.68;;;;;;;;;;5076232;28;20204;-89
2021/10/01 13:38:41;;;;;;;1.15;0.68;;;;;;;;;;5076058;28;20225;-90
2021/10/01 13:41:10;;;;;;;1.70;0.70;;;;;;;;;;5077063;28;20185;-87
2021/10/01 13:43:40;;;;;;;0.60;0.60;;;;;;;;;;5076742;28;20185;-88
2021/10/01 13:46:12;;;;;;;0.63;0.50;;;;;;;;;;5075860;28;20190;-88
2021/10/01 13:48:40;;;;;;;0.30;0.30;;;;;;;;;;5076201;28;20588;-89
2021/10/01 13:51:08;;;;;;;0.52;0.52;;;;;;;;;;5093294;28;20232;-88
2021/10/01 13:53:35;;;;;;;0.57;0.57;;;;;;;;;;5097121;28;20639;-89
2021/10/01 13:56:04;;;;;;;0.70;0.70;;;;;;;;;;5096802;28;20189;-88
2021/10/01 13:58:31;;;;;;;0.68;0.68;;;;;;;;;;5096043;28;20608;-87
2021/10/01 14:00:59;;;;;;;0.52;0.52;;;;;;;;;;5096080;28;20192;-89
2021/10/01 14:03:28;;;;;;;0.90;0.70;;;;;;;;;;5095724;28;20177;-89
2021/10/01 14:05:57;;;;;;;0.63;0.63;;;;;;;;;;5079995;28;20196;-88
2021/10/01 14:08:25;;;;;;;0.85;0.75;;;;;;;;;;5076111;28;20312;-88
2021/10/01 14:10:54;;;;;;;1.27;0.88;;;;;;;;;;5075495;28;20212;-86
2021/10/01 14:13:23;;;;;;;0.70;0.70;;;;;;;;;;5076112;28;20203;-88
2021/10/01 14:15:52;;;;;;;0.65;0.63;;;;;;;;;;5076084;28;20189;-89
2021/10/01 14:18:20;;;;;;;0.50;0.50;;;;;;;;;;5076332;28;20692;-87
2021/10/01 14:20:49;;;;;;;0.60;0.43;;;;;;;;;;5075754;28;20268;-89
2021/10/01 14:23:17;;;;;;;0.90;0.50;;;;;;;;;;5075293;28;20195;-89
2021/10/01 14:25:44;;;;;;;0.82;0.82;;;;;;;;;;5075439;28;20185;-89
2021/10/01 14:28:12;;;;;;;1.23;0.90;;;;;;;;;;5075268;28;20686;-88
2021/10/01 14:30:40;;;;;;;0.68;0.65;;;;;;;;;;5079079;28;20271;-88
2021/10/01 14:33:09;;;;;;;0.70;0.70;;;;;;;;;;5081391;28;20200;-87
2021/10/01 14:35:37;;;;;;;0.55;0.55;;;;;;;;;;5097204;28;20258;-87
2021/10/01 14:38:08;;;;;;;0.60;0.60;;;;;;;;;;5097113;28;20189;-90
2021/10/01 14:40:36;;;;;;;0.60;0.60;;;;;;;;;;5098344;28;20195;-89
2021/10/01 14:43:04;;;;;;;0.73;0.73;;;;;;;;;;5096658;28;20194;-89
2021/10/01 14:45:31;;;;;;;1.33;1.23;;;;;;;;;;5096765;28;20191;-90
2021/10/01 14:47:59;;;;;;;0.70;0.68;;;;;;;;;;5096628;28;20206;-88
2021/10/01 14:50:26;;;;;;;0.60;0.60;;;;;;;;;;5108745;28;20702;-88
2021/10/01 14:52:54;;;;;;;0.52;0.43;;;;;;;;;;5096102;28;20200;-87
2021/10/01 14:55:23;;;;;;;0.50;0.50;;;;;;;;;;5095565;28;20207;-90
2021/10/01 14:57:50;;;;;;;0.70;0.70;;;;;;;;;;5095051;28;20202;-89
2021/10/01 15:00:18;;;;;;;0.45;0.45;;;;;;;;;;5096348;28;20184;-87
2021/10/01 15:02:47;;;;;;;0.52;0.52;;;;;;;;;;5095303;28;20689;-89
2021/10/01 15:05:14;;;;;;;1.33;0.70;;;;;;;;;;5087438;28;20188;-88
2021/10/01 15:07:42;;;;;;;0.80;0.80;;;;;;;;;;5095419;28;20183;-87
2021/10/01 15:10:09;;;;;;;0.80;0.75;;;;;;;;;;5094768;28;20227;-87
2021/10/01 15:12:38;;;;;;;1.20;1.10;;;;;;;;;;5088131;28;20216;-87
2021/10/01 15:15:09;;;;;;;0.60;0.60;;;;;;;;;;5092648;28;20204;-88
2021/10/01 15:17:36;;;;;;;0.65;0.65;;;;;;;;;;5095234;28;20678;-89
2021/10/01 15:20:06;;;;;;;0.60;0.60;;;;;;;;;;5096344;28;20226;-89
2021/10/01 15:22:33;;;;;;;0.55;0.55;;;;;;;;;;5094119;28;20191;-87
2021/10/01 15:25:01;;;;;;;0.90;0.80;;;;;;;;;;5094360;28;20227;-89
2021/10/01 15:27:29;;;;;;;0.65;0.65;;;;;;;;;;5094470;28;20188;-89
2021/10/01 15:30:18;;;;;;;0.75;0.75;;;;;;;;;;5095067;28;20223;-90
2021/10/01 15:32:47;;;;;;;0.82;0.82;;;;;;;;;;5094364;28;20296;-89
2021/10/01 15:35:18;;;;;;;0.68;0.68;;;;;;;;;;5079358;28;20213;-88
2021/10/01 15:37:49;;;;;;;0.68;0.68;;;;;;;;;;5069680;28;20239;-87
2021/10/01 15:40:16;;;;;;;0.60;0.60;;;;;;;;;;5088531;28;20219;-88
2021/10/01 15:42:44;;;;;;;0.50;0.50;;;;;;;;;;5088528;28;20197;-88
2021/10/01 15:45:16;;;;;;;0.80;0.80;;;;;;;;;;5075566;28;20269;-90
2021/10/01 15:47:43;;;;;;;0.52;0.52;;;;;;;;;;5086547;28;20234;-88
2021/10/01 15:50:15;;;;;;;0.55;0.55;;;;;;;;;;5084964;28;20236;-88
2021/10/01 15:52:43;;;;;;;0.68;0.68;;;;;;;;;;5075728;28;20214;-91
2021/10/01 15:55:11;;;;;;;0.68;0.50;;;;;;;;;;5078436;28;20239;-89
2021/10/01 15:57:42;;;;;;;0.50;0.50;;;;;;;;;;5069815;28;20606;-90
2021/10/01 16:00:12;;;;;;;0.73;0.73;;;;;;;;;;5075771;28;20296;-89
2021/10/01 16:02:43;;;;;;;0.50;0.50;;;;;;;;;;5076072;28;20192;-88
2021/10/01 16:05:15;;;;;;;0.77;0.60;;;;;;;;;;5075249;28;20201;-91
2021/10/01 16:07:45;;;;;;;0.90;0.90;;;;;;;;;;5076696;28;20193;-90
2021/10/01 16:10:14;;;;;;;0.63;0.63;;;;;;;;;;5083509;28;20213;-89
2021/10/01 16:12:43;;;;;;;1.02;0.98;;;;;;;;;;5089070;28;20276;-85
2021/10/01 16:15:13;;;;;;;0.80;0.80;;;;;;;;;;5086462;28;20220;-86
2021/10/01 16:17:42;;;;;;;0.50;0.50;;;;;;;;;;5087915;28;20201;-87
2021/10/01 16:20:16;;;;;;;0.65;0.65;;;;;;;;;;5085950;28;20221;-82
2021/10/01 16:22:45;;;;;;;0.60;0.60;;;;;;;;;;5073911;28;20232;-85
2021/10/01 16:25:13;;;;;;;0.70;0.70;;;;;;;;;;5073923;28;20220;-86
2021/10/01 16:27:41;;;;;;;0.70;0.70;;;;;;;;;;5073595;28;20200;-85
2021/10/01 16:30:09;;;;;;;0.47;0.47;;;;;;;;;;5073141;28;20232;-85
2021/10/01 16:32:37;;;;;;;0.70;0.70;;;;;;;;;;5073684;28;20279;-85
2021/10/01 16:35:07;;;;;;;0.90;0.90;;;;;;;;;;5074635;28;20203;-85
2021/10/01 16:37:35;;;;;;;0.95;0.75;;;;;;;;;;5074540;28;20203;-85
2021/10/01 16:40:05;;;;;;;0.85;0.80;;;;;;;;;;5084255;28;20653;-86